Elisalex Schulte — 9V9154 — position and weather

sailwx.info

Track history (hours):
 
Tides and Currents Weather Stations Pressure Air Temp Water Temp Dewpoint Dewpoint Depression Visibility Wind Speed Wind Dir Waves Ship Positions

Elisalex Schulte

Last reported at 2016-Feb-12 04:33 UTC. Time now 2016-Feb-13 19:24 UTC.
Position N 56°02' W 003°42'.

Length 144 m; draft 6.5 m.

Type: Tanker. MMSI: 563052000.

Date/timePositionNaut miles runAvg speedWind from/ knotsBaromVisibWave heightAir tempDewpointWater temp
2016-Feb-12 04:33N 56°02' W 003°42'0 0.5
2016-Feb-12 03:33N 56°02' W 003°41'7 6.8
2016-Feb-12 02:33N 56°01' W 003°29'9 9.3
2016-Feb-12 01:33N 56°02' W 003°12'4 3.6
2016-Feb-12 00:32N 56°05' W 003°07'0 0.0
2016-Feb-11 23:32N 56°05' W 003°07'0 0.0
2016-Feb-11 22:32N 56°05' W 003°07'0 0.1
2016-Feb-11 21:32N 56°05' W 003°07'0 0.1
2016-Feb-11 20:32N 56°05' W 003°07'0 0.0
2016-Feb-11 19:32N 56°05' W 003°07'0 0.0
2016-Feb-11 18:32N 56°05' W 003°07'0 0.0
2016-Feb-11 17:32N 56°05' W 003°07'0 0.0
2016-Feb-11 16:32N 56°05' W 003°07'0 0.0
2016-Feb-11 15:32N 56°05' W 003°07'0 0.1
2016-Feb-11 14:32N 56°05' W 003°07'0 0.0
2016-Feb-11 13:32N 56°05' W 003°07'0 0.0
2016-Feb-11 12:32N 56°05' W 003°07'0 0.1
2016-Feb-11 11:32N 56°05' W 003°07'0 0.1
2016-Feb-11 10:32N 56°05' W 003°07'0 0.0
2016-Feb-11 09:31N 56°05' W 003°07'0 0.0
2016-Feb-11 08:31N 56°05' W 003°07'0 0.0
2016-Feb-11 07:32N 56°05' W 003°07'0 0.0
2016-Feb-11 06:32N 56°05' W 003°07'0 0.0
2016-Feb-11 05:31N 56°05' W 003°07'0 0.0
2016-Feb-11 04:31N 56°05' W 003°07'0 0.0
2016-Feb-11 03:32N 56°05' W 003°07'0 0.1
2016-Feb-11 02:31N 56°05' W 003°07'0 0.1
2016-Feb-11 01:31N 56°05' W 003°07'0 0.0
2016-Feb-11 00:31N 56°05' W 003°07'0 0.1
2016-Feb-10 23:31N 56°05' W 003°07'0 0.1
2016-Feb-10 22:31N 56°05' W 003°07'0 0.0
2016-Feb-10 21:31N 56°05' W 003°07'0 0.0
2016-Feb-10 20:31N 56°05' W 003°07'0 0.0
2016-Feb-10 19:31N 56°05' W 003°07'0 0.0
2016-Feb-10 18:31N 56°05' W 003°07'0 0.0
2016-Feb-10 17:31N 56°05' W 003°07'0 0.0
2016-Feb-10 16:31N 56°05' W 003°07'0 0.0
2016-Feb-10 15:31N 56°05' W 003°07'0 0.0
2016-Feb-10 14:31N 56°05' W 003°07'0 0.1
2016-Feb-10 13:31N 56°05' W 003°07'0 0.1
2016-Feb-10 12:31N 56°05' W 003°07'0 0.0
2016-Feb-10 11:31N 56°05' W 003°07'0 0.1
2016-Feb-10 10:31N 56°05' W 003°07'0 0.0
2016-Feb-10 09:31N 56°05' W 003°07'0 0.0
2016-Feb-10 08:31N 56°05' W 003°07'0 0.0
2016-Feb-10 07:31N 56°05' W 003°07'0 0.0
2016-Feb-10 06:31N 56°05' W 003°07'0 0.0
2016-Feb-10 05:31N 56°05' W 003°07'0 0.0
2016-Feb-10 04:31N 56°05' W 003°07'0 0.0
2016-Feb-10 03:31N 56°05' W 003°07'0 0.1
2016-Feb-10 02:31N 56°05' W 003°07'0 0.0
2016-Feb-10 01:31N 56°05' W 003°07'0 0.0
2016-Feb-10 00:31N 56°05' W 003°07'0 0.0
2016-Feb-09 23:31N 56°05' W 003°07'0 0.1
2016-Feb-09 22:31N 56°05' W 003°07'0 0.0
2016-Feb-09 21:31N 56°05' W 003°07'1 1.1
2016-Feb-09 20:33N 56°05' W 003°05'9 9.4
2016-Feb-09 19:33N 56°07' W 002°49'1111.0
2016-Feb-09 18:33N 56°07' W 002°29'1211.7
2016-Feb-09 17:33N 56°08' W 002°08'1111.4
2016-Feb-09 16:33N 56°09' W 001°48'334 8.6
2016-Feb-08 01:33N 57°31' E 008°04'7 7.0
2016-Feb-08 00:33N 57°33' E 008°17'68 8.4
2016-Feb-07 16:22N 57°54' E 010°19'810.3
2016-Feb-07 15:33N 57°54' E 010°34'1110.6
2016-Feb-07 14:33N 57°49' E 010°52'1212.0
2016-Feb-07 13:33N 57°42' E 011°11'1212.4
2016-Feb-07 12:33N 57°37' E 011°32'9 9.1
2016-Feb-07 11:33N 57°40' E 011°48'3 2.8
2016-Feb-07 10:33N 57°41' E 011°53'0 0.0
2016-Feb-07 09:33N 57°41' E 011°53'0 0.0
2016-Feb-07 08:33N 57°41' E 011°53'0 0.0
2016-Feb-07 07:33N 57°41' E 011°53'0 0.0
2016-Feb-07 06:33N 57°41' E 011°53'0 0.0
2016-Feb-07 05:33N 57°41' E 011°53'0 0.0
2016-Feb-07 04:33N 57°41' E 011°53'0 0.0
2016-Feb-07 03:33N 57°41' E 011°53'0 0.0
2016-Feb-07 02:33N 57°41' E 011°53'0 0.0
2016-Feb-07 01:30N 57°41' E 011°53'0 0.0
2016-Feb-07 00:33N 57°41' E 011°53'0 0.0
2016-Feb-06 23:33N 57°41' E 011°53'0 0.0
2016-Feb-06 22:33N 57°41' E 011°53'0 0.0
2016-Feb-06 21:33N 57°41' E 011°53'0 0.0
2016-Feb-06 20:33N 57°41' E 011°53'0 0.0
2016-Feb-06 19:33N 57°41' E 011°53'0 0.0
2016-Feb-06 18:33N 57°41' E 011°53'0 0.0
2016-Feb-06 17:33N 57°41' E 011°53'0 0.0
2016-Feb-06 16:33N 57°41' E 011°53'0 0.0
2016-Feb-06 15:33N 57°41' E 011°53'0 0.0
2016-Feb-06 14:33N 57°41' E 011°53'0 0.0
2016-Feb-06 13:33N 57°41' E 011°53'0 0.0
2016-Feb-06 12:33N 57°41' E 011°53'0 0.0
2016-Feb-06 11:33N 57°41' E 011°53'0 0.0
2016-Feb-06 10:33N 57°41' E 011°53'0 0.0
2016-Feb-06 09:33N 57°41' E 011°53'0 0.0
2016-Feb-06 08:33N 57°41' E 011°53'0 0.0
2016-Feb-06 07:33N 57°41' E 011°53'0 0.0
2016-Feb-06 06:33N 57°41' E 011°53'0 0.0
2016-Feb-06 05:33N 57°41' E 011°53'0 0.0
2016-Feb-06 04:33N 57°41' E 011°53'6 6.3
2016-Feb-06 03:34N 57°39' E 011°42'5 5.0
2016-Feb-06 02:32N 57°34' E 011°40'0 0.0
2016-Feb-06 01:32N 57°34' E 011°40'0 0.0
2016-Feb-06 00:32N 57°34' E 011°40'0 0.0
2016-Feb-05 23:32N 57°34' E 011°40'0 0.0
2016-Feb-05 22:32N 57°34' E 011°40'0 0.0
2016-Feb-05 21:32N 57°34' E 011°40'0 0.0
2016-Feb-05 20:32N 57°34' E 011°40'0 0.0
2016-Feb-05 19:32N 57°34' E 011°40'0 0.0
2016-Feb-05 18:32N 57°34' E 011°40'0 0.0
2016-Feb-05 17:32N 57°34' E 011°40'0 0.0
2016-Feb-05 16:32N 57°34' E 011°40'0 0.0
2016-Feb-05 15:32N 57°34' E 011°40'0 0.0
2016-Feb-05 14:32N 57°34' E 011°40'0 0.0
2016-Feb-05 13:32N 57°34' E 011°40'0 0.0
2016-Feb-05 12:32N 57°34' E 011°40'0 0.0
2016-Feb-05 11:32N 57°34' E 011°40'0 0.0
2016-Feb-05 10:32N 57°34' E 011°40'0 0.1
2016-Feb-05 09:32N 57°33' E 011°40'0 0.0
2016-Feb-05 08:29N 57°33' E 011°40'0 0.0
2016-Feb-05 07:32N 57°33' E 011°40'0 0.0
2016-Feb-05 06:32N 57°33' E 011°40'0 0.0
2016-Feb-05 05:32N 57°33' E 011°40'0 0.0
2016-Feb-05 04:32N 57°33' E 011°40'0 0.0
2016-Feb-05 03:32N 57°33' E 011°40'0 0.0
2016-Feb-05 02:29N 57°33' E 011°40'0 0.0
2016-Feb-05 01:29N 57°33' E 011°40'0 0.0
2016-Feb-05 00:32N 57°33' E 011°40'0 0.0
2016-Feb-04 23:32N 57°33' E 011°40'0 0.0
2016-Feb-04 22:32N 57°34' E 011°40'0 0.0
2016-Feb-04 21:32N 57°34' E 011°40'0 0.0
2016-Feb-04 20:32N 57°34' E 011°40'0 0.1
2016-Feb-04 19:32N 57°33' E 011°40'0 0.0
2016-Feb-04 18:32N 57°33' E 011°40'0 0.0
2016-Feb-04 17:32N 57°33' E 011°40'0 0.1
2016-Feb-04 16:33N 57°33' E 011°40'1010.0
2016-Feb-04 15:34N 57°38' E 011°24'1312.9
2016-Feb-04 14:33N 57°45' E 011°03'1413.7
2016-Feb-04 13:33N 57°53' E 010°42'4313.1
2016-Feb-04 10:17N 57°47' E 009°22'1013.6
2016-Feb-04 09:33N 57°43' E 009°04'37212.0
2016-Feb-03 02:33N 56°08' W 001°54'1313.1
2016-Feb-03 01:33N 56°08' W 002°18'1313.4
2016-Feb-03 00:33N 56°07' W 002°42'1312.8
2016-Feb-02 23:33N 56°04' W 003°04'10 9.9
2016-Feb-02 22:33N 56°01' W 003°21'10 9.9
2016-Feb-02 21:33N 56°02' W 003°38'  
Track history (hours):
 
Tides and Currents Weather Stations Pressure Air Temp Water Temp Dewpoint Dewpoint Depression Visibility Wind Speed Wind Dir Waves Ship Positions

Elisalex Schulte

Last reported at 2016-Feb-12 04:33 UTC. Time now 2016-Feb-13 19:24 UTC.
Position N 56°02' W 003°42'.

Length 144 m; draft 6.5 m.

Type: Tanker. MMSI: 563052000.

Date/timePositionNaut miles runAvg speedWind from/ knotsBaromVisibWave heightAir tempDewpointWater temp
2016-Feb-12 04:33N 56°02' W 003°42'0 0.5
2016-Feb-12 03:33N 56°02' W 003°41'7 6.8
2016-Feb-12 02:33N 56°01' W 003°29'9 9.3
2016-Feb-12 01:33N 56°02' W 003°12'4 3.6
2016-Feb-12 00:32N 56°05' W 003°07'0 0.0
2016-Feb-11 23:32N 56°05' W 003°07'0 0.0
2016-Feb-11 22:32N 56°05' W 003°07'0 0.1
2016-Feb-11 21:32N 56°05' W 003°07'0 0.1
2016-Feb-11 20:32N 56°05' W 003°07'0 0.0
2016-Feb-11 19:32N 56°05' W 003°07'0 0.0
2016-Feb-11 18:32N 56°05' W 003°07'0 0.0
2016-Feb-11 17:32N 56°05' W 003°07'0 0.0
2016-Feb-11 16:32N 56°05' W 003°07'0 0.0
2016-Feb-11 15:32N 56°05' W 003°07'0 0.1
2016-Feb-11 14:32N 56°05' W 003°07'0 0.0
2016-Feb-11 13:32N 56°05' W 003°07'0 0.0
2016-Feb-11 12:32N 56°05' W 003°07'0 0.1
2016-Feb-11 11:32N 56°05' W 003°07'0 0.1
2016-Feb-11 10:32N 56°05' W 003°07'0 0.0
2016-Feb-11 09:31N 56°05' W 003°07'0 0.0
2016-Feb-11 08:31N 56°05' W 003°07'0 0.0
2016-Feb-11 07:32N 56°05' W 003°07'0 0.0
2016-Feb-11 06:32N 56°05' W 003°07'0 0.0
2016-Feb-11 05:31N 56°05' W 003°07'0 0.0
2016-Feb-11 04:31N 56°05' W 003°07'0 0.0
2016-Feb-11 03:32N 56°05' W 003°07'0 0.1
2016-Feb-11 02:31N 56°05' W 003°07'0 0.1
2016-Feb-11 01:31N 56°05' W 003°07'0 0.0
2016-Feb-11 00:31N 56°05' W 003°07'0 0.1
2016-Feb-10 23:31N 56°05' W 003°07'0 0.1
2016-Feb-10 22:31N 56°05' W 003°07'0 0.0
2016-Feb-10 21:31N 56°05' W 003°07'0 0.0
2016-Feb-10 20:31N 56°05' W 003°07'0 0.0
2016-Feb-10 19:31N 56°05' W 003°07'0 0.0
2016-Feb-10 18:31N 56°05' W 003°07'0 0.0
2016-Feb-10 17:31N 56°05' W 003°07'0 0.0
2016-Feb-10 16:31N 56°05' W 003°07'0 0.0
2016-Feb-10 15:31N 56°05' W 003°07'0 0.0
2016-Feb-10 14:31N 56°05' W 003°07'0 0.1
2016-Feb-10 13:31N 56°05' W 003°07'0 0.1
2016-Feb-10 12:31N 56°05' W 003°07'0 0.0
2016-Feb-10 11:31N 56°05' W 003°07'0 0.1
2016-Feb-10 10:31N 56°05' W 003°07'0 0.0
2016-Feb-10 09:31N 56°05' W 003°07'0 0.0
2016-Feb-10 08:31N 56°05' W 003°07'0 0.0
2016-Feb-10 07:31N 56°05' W 003°07'0 0.0
2016-Feb-10 06:31N 56°05' W 003°07'0 0.0
2016-Feb-10 05:31N 56°05' W 003°07'0 0.0
2016-Feb-10 04:31N 56°05' W 003°07'0 0.0
2016-Feb-10 03:31N 56°05' W 003°07'0 0.1
2016-Feb-10 02:31N 56°05' W 003°07'0 0.0
2016-Feb-10 01:31N 56°05' W 003°07'0 0.0
2016-Feb-10 00:31N 56°05' W 003°07'0 0.0
2016-Feb-09 23:31N 56°05' W 003°07'0 0.1
2016-Feb-09 22:31N 56°05' W 003°07'0 0.0
2016-Feb-09 21:31N 56°05' W 003°07'1 1.1
2016-Feb-09 20:33N 56°05' W 003°05'9 9.4
2016-Feb-09 19:33N 56°07' W 002°49'1111.0
2016-Feb-09 18:33N 56°07' W 002°29'1211.7
2016-Feb-09 17:33N 56°08' W 002°08'1111.4
2016-Feb-09 16:33N 56°09' W 001°48'334 8.6
2016-Feb-08 01:33N 57°31' E 008°04'7 7.0
2016-Feb-08 00:33N 57°33' E 008°17'68 8.4
2016-Feb-07 16:22N 57°54' E 010°19'810.3
2016-Feb-07 15:33N 57°54' E 010°34'1110.6
2016-Feb-07 14:33N 57°49' E 010°52'1212.0
2016-Feb-07 13:33N 57°42' E 011°11'1212.4
2016-Feb-07 12:33N 57°37' E 011°32'9 9.1
2016-Feb-07 11:33N 57°40' E 011°48'3 2.8
2016-Feb-07 10:33N 57°41' E 011°53'0 0.0
2016-Feb-07 09:33N 57°41' E 011°53'0 0.0
2016-Feb-07 08:33N 57°41' E 011°53'0 0.0
2016-Feb-07 07:33N 57°41' E 011°53'0 0.0
2016-Feb-07 06:33N 57°41' E 011°53'0 0.0
2016-Feb-07 05:33N 57°41' E 011°53'0 0.0
2016-Feb-07 04:33N 57°41' E 011°53'0 0.0
2016-Feb-07 03:33N 57°41' E 011°53'0 0.0
2016-Feb-07 02:33N 57°41' E 011°53'0 0.0
2016-Feb-07 01:30N 57°41' E 011°53'0 0.0
2016-Feb-07 00:33N 57°41' E 011°53'0 0.0
2016-Feb-06 23:33N 57°41' E 011°53'0 0.0
2016-Feb-06 22:33N 57°41' E 011°53'0 0.0
2016-Feb-06 21:33N 57°41' E 011°53'0 0.0
2016-Feb-06 20:33N 57°41' E 011°53'0 0.0
2016-Feb-06 19:33N 57°41' E 011°53'0 0.0
2016-Feb-06 18:33N 57°41' E 011°53'0 0.0
2016-Feb-06 17:33N 57°41' E 011°53'0 0.0
2016-Feb-06 16:33N 57°41' E 011°53'0 0.0
2016-Feb-06 15:33N 57°41' E 011°53'0 0.0
2016-Feb-06 14:33N 57°41' E 011°53'0 0.0
2016-Feb-06 13:33N 57°41' E 011°53'0 0.0
2016-Feb-06 12:33N 57°41' E 011°53'0 0.0
2016-Feb-06 11:33N 57°41' E 011°53'0 0.0
2016-Feb-06 10:33N 57°41' E 011°53'0 0.0
2016-Feb-06 09:33N 57°41' E 011°53'0 0.0
2016-Feb-06 08:33N 57°41' E 011°53'0 0.0
2016-Feb-06 07:33N 57°41' E 011°53'0 0.0
2016-Feb-06 06:33N 57°41' E 011°53'0 0.0
2016-Feb-06 05:33N 57°41' E 011°53'0 0.0
2016-Feb-06 04:33N 57°41' E 011°53'6 6.3
2016-Feb-06 03:34N 57°39' E 011°42'5 5.0
2016-Feb-06 02:32N 57°34' E 011°40'0 0.0
2016-Feb-06 01:32N 57°34' E 011°40'0 0.0
2016-Feb-06 00:32N 57°34' E 011°40'0 0.0
2016-Feb-05 23:32N 57°34' E 011°40'0 0.0
2016-Feb-05 22:32N 57°34' E 011°40'0 0.0
2016-Feb-05 21:32N 57°34' E 011°40'0 0.0
2016-Feb-05 20:32N 57°34' E 011°40'0 0.0
2016-Feb-05 19:32N 57°34' E 011°40'0 0.0
2016-Feb-05 18:32N 57°34' E 011°40'0 0.0
2016-Feb-05 17:32N 57°34' E 011°40'0 0.0
2016-Feb-05 16:32N 57°34' E 011°40'0 0.0
2016-Feb-05 15:32N 57°34' E 011°40'0 0.0
2016-Feb-05 14:32N 57°34' E 011°40'0 0.0
2016-Feb-05 13:32N 57°34' E 011°40'0 0.0
2016-Feb-05 12:32N 57°34' E 011°40'0 0.0
2016-Feb-05 11:32N 57°34' E 011°40'0 0.0
2016-Feb-05 10:32N 57°34' E 011°40'0 0.1
2016-Feb-05 09:32N 57°33' E 011°40'0 0.0
2016-Feb-05 08:29N 57°33' E 011°40'0 0.0
2016-Feb-05 07:32N 57°33' E 011°40'0 0.0
2016-Feb-05 06:32N 57°33' E 011°40'0 0.0
2016-Feb-05 05:32N 57°33' E 011°40'0 0.0
2016-Feb-05 04:32N 57°33' E 011°40'0 0.0
2016-Feb-05 03:32N 57°33' E 011°40'0 0.0
2016-Feb-05 02:29N 57°33' E 011°40'0 0.0
2016-Feb-05 01:29N 57°33' E 011°40'0 0.0
2016-Feb-05 00:32N 57°33' E 011°40'0 0.0
2016-Feb-04 23:32N 57°33' E 011°40'0 0.0
2016-Feb-04 22:32N 57°34' E 011°40'0 0.0
2016-Feb-04 21:32N 57°34' E 011°40'0 0.0
2016-Feb-04 20:32N 57°34' E 011°40'0 0.1
2016-Feb-04 19:32N 57°33' E 011°40'0 0.0
2016-Feb-04 18:32N 57°33' E 011°40'0 0.0
2016-Feb-04 17:32N 57°33' E 011°40'0 0.1
2016-Feb-04 16:33N 57°33' E 011°40'1010.0
2016-Feb-04 15:34N 57°38' E 011°24'1312.9
2016-Feb-04 14:33N 57°45' E 011°03'1413.7
2016-Feb-04 13:33N 57°53' E 010°42'4313.1
2016-Feb-04 10:17N 57°47' E 009°22'1013.6
2016-Feb-04 09:33N 57°43' E 009°04'37212.0
2016-Feb-03 02:33N 56°08' W 001°54'1313.1
2016-Feb-03 01:33N 56°08' W 002°18'1313.4
2016-Feb-03 00:33N 56°07' W 002°42'1312.8
2016-Feb-02 23:33N 56°04' W 003°04'10 9.9
2016-Feb-02 22:33N 56°01' W 003°21'10 9.9
2016-Feb-02 21:33N 56°02' W 003°38'  

Dump ship's entire track history